Time;durP1;ratioP1;P1;durP2;ratioP2;P2;SDS_P1;SDS_P2;PMS_P1;PMS_P2;Temp;Humidity;BMP_temperature;BMP_pressure;BME280_temperature;BME280_humidity;BME280_pressure;Samples;Min_cycle;Max_cycle;Signal;HPM_P1;HPM_P2
2022/09/03 10:39:11;;;;;;;12.45;7.63;;;23.50;98.90;;;;;;5112770;27;20351;-74
2022/09/03 10:42:01;;;;;;;11.63;7.40;;;23.20;99.70;;;;;;5073472;28;20056;-72
2022/09/03 10:44:35;;;;;;;11.57;6.20;;;23.20;99.40;;;;;;5092264;28;20052;-75
2022/09/03 10:47:24;;;;;;;8.50;6.22;;;23.10;99.30;;;;;;5073739;28;20040;-71
2022/09/03 10:50:18;;;;;;;8.75;5.72;;;23.00;99.10;;;;;;5074883;28;20045;-79
2022/09/03 10:53:30;;;;;;;9.30;5.38;;;23.00;98.80;;;;;;5092316;28;20044;-78
2022/09/03 10:56:13;;;;;;;6.05;3.60;;;22.90;98.80;;;;;;5092286;28;20402;-78
2022/09/03 10:59:06;;;;;;;10.23;4.28;;;21.20;98.20;;;;;;5075471;28;20051;-77
2022/09/03 11:01:55;;;;;;;6.93;3.90;;;23.00;97.10;;;;;;5073519;28;20055;-76
2022/09/03 11:04:31;;;;;;;7.03;4.03;;;23.00;96.30;;;;;;5056923;28;20462;-78
2022/09/03 11:07:12;;;;;;;8.00;4.15;;;23.00;97.50;;;;;;5073490;28;20344;-76
2022/09/03 11:09:53;;;;;;;6.03;3.70;;;23.10;97.40;;;;;;5092063;28;20355;-79
2022/09/03 11:12:42;;;;;;;7.57;3.35;;;23.10;97.10;;;;;;5091791;28;20051;-80
2022/09/03 11:15:52;;;;;;;6.80;3.15;;;23.20;96.80;;;;;;5072726;28;20037;-81
2022/09/03 11:18:33;;;;;;;5.10;2.75;;;23.20;96.20;;;;;;5073891;28;20467;-81
2022/09/03 11:21:09;;;;;;;4.05;2.75;;;23.20;96.10;;;;;;5056036;28;20052;-80
2022/09/03 11:23:46;;;;;;;4.10;2.78;;;23.30;96.50;;;;;;5074228;28;20052;-81
2022/09/03 11:26:26;;;;;;;4.43;2.75;;;23.50;96.30;;;;;;5057538;28;20078;-83
2022/09/03 11:29:14;;;;;;;5.00;3.00;;;23.60;95.40;;;;;;5072936;28;20069;-77
2022/09/03 11:32:09;;;;;;;7.00;3.17;;;24.60;95.30;;;;;;5091265;28;20044;-81
2022/09/03 11:34:53;;;;;;;5.35;2.88;;;24.00;95.10;;;;;;5090317;28;20055;-78
2022/09/03 11:37:25;;;;;;;4.75;2.50;;;24.20;94.60;;;;;;5075475;28;20483;-74
2022/09/03 11:39:57;;;;;;;5.57;3.00;;;24.30;94.60;;;;;;5090152;28;20040;-80
2022/09/03 11:42:40;;;;;;;7.38;3.17;;;24.50;94.40;;;;;;5091194;28;20384;-78
2022/09/03 11:45:19;;;;;;;5.38;3.28;;;24.60;94.00;;;;;;5071576;28;20049;-76
2022/09/03 11:47:50;;;;;;;7.32;3.10;;;24.80;93.60;;;;;;5050078;28;20076;-74
2022/09/03 11:50:20;;;;;;;5.80;3.00;;;24.90;93.70;;;;;;5063844;28;20052;-74
2022/09/03 11:52:50;;;;;;;8.35;3.20;;;25.00;93.70;;;;;;5077117;28;20060;-76
2022/09/03 11:55:26;;;;;;;5.20;3.08;;;25.10;93.60;;;;;;5064821;28;20044;-74
2022/09/03 11:57:55;;;;;;;5.97;2.75;;;25.30;93.40;;;;;;5035814;28;20056;-72
2022/09/03 12:00:26;;;;;;;4.30;2.78;;;25.40;93.30;;;;;;5062096;28;20047;-79
2022/09/03 12:03:03;;;;;;;6.38;3.00;;;26.40;93.30;;;;;;5075303;28;20060;-79
2022/09/03 12:06:18;;;;;;;4.22;2.30;;;25.20;92.50;;;;;;5076930;28;20056;-78
2022/09/03 12:09:14;;;;;;;4.85;2.95;;;25.80;92.20;;;;;;5076185;28;20050;-78
2022/09/03 12:11:59;;;;;;;6.43;2.88;;;26.00;91.80;;;;;;5077507;28;20052;-78
2022/09/03 12:14:55;;;;;;;4.22;2.60;;;26.00;92.10;;;;;;5076004;28;20045;-80
2022/09/03 12:17:32;;;;;;;4.03;2.63;;;26.10;91.80;;;;;;5075978;28;20470;-77
2022/09/03 12:19:59;;;;;;;5.05;2.47;;;26.00;91.60;;;;;;5076242;28;20512;-82
2022/09/03 12:22:30;;;;;;;5.10;2.60;;;26.10;91.50;;;;;;5075872;28;20056;-83
2022/09/03 12:25:09;;;;;;;3.30;2.47;;;24.80;90.80;;;;;;5076202;28;20166;-79
2022/09/03 12:27:41;;;;;;;6.47;3.10;;;26.30;90.70;;;;;;5075684;28;20040;-75
2022/09/03 12:30:29;;;;;;;7.72;3.00;;;26.30;90.90;;;;;;5059913;28;20059;-83
2022/09/03 12:33:07;;;;;;;6.28;2.83;;;26.30;91.10;;;;;;5075635;28;20470;-80
2022/09/03 12:35:36;;;;;;;7.53;2.97;;;26.40;90.80;;;;;;5076185;28;20048;-77
2022/09/03 12:38:28;;;;;;;7.40;2.80;;;26.20;91.90;;;;;;5061865;28;20052;-77
2022/09/03 12:40:55;;;;;;;6.82;2.45;;;26.30;91.00;;;;;;5038208;28;20041;-80
2022/09/03 12:43:58;;;;;;;5.63;2.72;;;26.40;91.20;;;;;;5056233;28;20052;-79
2022/09/03 12:46:34;;;;;;;5.90;2.72;;;27.00;90.70;;;;;;5030961;28;20046;-79
2022/09/03 12:49:06;;;;;;;4.15;2.25;;;26.60;90.50;;;;;;5019690;28;20056;-79
2022/09/03 12:52:02;;;;;;;3.47;2.13;;;26.80;91.00;;;;;;5036482;28;20054;-78
2022/09/03 12:54:37;;;;;;;5.20;2.20;;;26.90;90.00;;;;;;5035223;28;20049;-78
2022/09/03 12:57:11;;;;;;;5.15;2.05;;;28.70;90.30;;;;;;5018796;28;20045;-78
2022/09/03 12:59:42;;;;;;;6.22;1.90;;;26.90;89.80;;;;;;5036473;28;20495;-79
2022/09/03 13:02:58;;;;;;;6.95;2.50;;;27.00;90.20;;;;;;5033925;28;20376;-79
2022/09/03 13:06:00;;;;;;;5.25;2.28;;;26.90;88.80;;;;;;5000855;28;20045;-77
2022/09/03 13:08:57;;;;;;;6.60;2.35;;;27.00;89.30;;;;;;5034924;28;20049;-78
2022/09/03 13:11:35;;;;;;;3.78;2.20;;;26.90;87.70;;;;;;5018983;28;20053;-78
2022/09/03 13:14:11;;;;;;;3.85;1.83;;;26.90;89.00;;;;;;5017638;28;20046;-78
2022/09/03 13:16:41;;;;;;;6.32;2.25;;;26.90;87.80;;;;;;5035981;28;20041;-80
2022/09/03 13:19:24;;;;;;;4.07;2.13;;;26.90;89.00;;;;;;5035931;28;20486;-78
2022/09/03 13:22:13;;;;;;;3.15;1.88;;;26.80;88.00;;;;;;5017602;28;20056;-79
2022/09/03 13:24:58;;;;;;;3.40;2.30;;;27.00;87.50;;;;;;5018759;28;20049;-74
2022/09/03 13:27:36;;;;;;;4.95;2.08;;;27.00;87.10;;;;;;5017122;28;20045;-73
2022/09/03 13:30:07;;;;;;;5.22;2.60;;;26.90;87.90;;;;;;5017845;28;20456;-79
2022/09/03 13:32:56;;;;;;;5.82;2.22;;;26.90;88.40;;;;;;5040914;28;20048;-77
2022/09/03 13:35:47;;;;;;;4.35;2.20;;;25.20;86.30;;;;;;5054448;28;20045;-75
2022/09/03 13:38:40;;;;;;;4.22;2.00;;;27.00;86.90;;;;;;5060207;28;20041;-73
2022/09/03 13:41:34;;;;;;;;;;;;;;;;;;;;;
2022/09/03 13:44:21;;;;;;;3.75;2.00;;;27.10;86.70;;;;;;5056561;28;20040;-78
2022/09/03 13:47:04;;;;;;;4.28;1.90;;;27.20;85.90;;;;;;5054158;28;20323;-73
2022/09/03 13:52:56;;;;;;;10.75;2.20;;;27.30;85.70;;;;;;5074952;28;20052;-80
2022/09/03 13:55:43;;;;;;;3.38;2.10;;;27.40;85.60;;;;;;5072384;28;20487;-81
2022/09/03 13:58:36;;;;;;;7.63;2.38;;;27.60;85.50;;;;;;5074311;28;20231;-76
2022/09/03 14:01:37;;;;;;;5.35;2.60;;;27.70;85.40;;;;;;5056509;28;20048;-76
2022/09/03 14:04:16;;;;;;;4.28;2.58;;;26.60;84.00;;;;;;5074763;28;20044;-75
2022/09/03 14:07:00;;;;;;;5.40;2.47;;;28.00;84.20;;;;;;5073075;28;20053;-75
2022/09/03 14:09:53;;;;;;;5.32;2.60;;;28.00;84.30;;;;;;5074368;28;20079;-77
2022/09/03 14:12:45;;;;;;;4.32;2.90;;;28.10;84.00;;;;;;5073532;28;20059;-77
2022/09/03 14:15:24;;;;;;;4.70;2.67;;;28.00;84.50;;;;;;5072095;28;20378;-75
2022/09/03 14:18:11;;;;;;;4.75;3.20;;;27.90;85.40;;;;;;5074652;28;20049;-73
2022/09/03 14:20:49;;;;;;;4.55;2.85;;;27.90;85.50;;;;;;5072204;28;20040;-76
2022/09/03 14:23:40;;;;;;;5.65;3.80;;;28.00;85.80;;;;;;5054430;28;20045;-75
2022/09/03 14:26:21;;;;;;;6.38;3.70;;;28.00;85.40;;;;;;5054253;28;20060;-75
2022/09/03 14:29:05;;;;;;;;;;;28.00;85.10;;;;;;5055020;28;20049;-76
2022/09/03 14:31:35;;;;;;;6.18;3.85;;;28.10;84.30;;;;;;5054688;28;19920;-76
2022/09/03 14:34:05;;;;;;;7.57;4.20;;;28.10;85.50;;;;;;5053190;28;20056;-77
2022/09/03 14:36:59;;;;;;;5.43;3.75;;;28.10;85.50;;;;;;5052478;28;20375;-77
2022/09/03 14:39:37;;;;;;;8.20;4.28;;;28.00;85.10;;;;;;5053676;28;20045;-80
2022/09/03 14:42:32;;;;;;;5.45;3.88;;;28.00;85.80;;;;;;5068448;28;20048;-79
2022/09/03 14:45:25;;;;;;;7.88;3.60;;;27.60;85.70;;;;;;5074261;28;20040;-80
2022/09/03 14:48:34;;;;;;;3.95;3.00;;;27.40;86.20;;;;;;5072593;28;20370;-80
2022/09/03 14:51:48;;;;;;;7.43;3.05;;;28.40;85.80;;;;;;5069386;28;20063;-76
2022/09/03 14:54:41;;;;;;;5.18;2.78;;;27.20;84.70;;;;;;5073198;28;20045;-76
2022/09/03 14:57:44;;;;;;;3.88;2.70;;;28.40;85.90;;;;;;5073777;28;20374;-77
2022/09/03 15:00:17;;;;;;;4.90;2.90;;;26.80;84.80;;;;;;5055972;28;20075;-76
2022/09/03 15:03:08;;;;;;;4.35;2.95;;;26.70;84.80;;;;;;5071882;28;20036;-78
2022/09/03 15:06:08;;;;;;;6.40;2.83;;;26.60;84.20;;;;;;5073587;28;20370;-77
2022/09/03 15:09:08;;;;;;;6.60;2.90;;;26.40;84.80;;;;;;5042524;28;20491;-79
2022/09/03 15:11:54;;;;;;;5.50;3.28;;;26.30;85.00;;;;;;5050675;28;20051;-78
2022/09/03 15:14:40;;;;;;;5.43;3.20;;;25.70;84.60;;;;;;5073179;28;20382;-79
2022/09/03 15:17:30;;;;;;;6.00;3.25;;;26.20;85.20;;;;;;5073722;28;20495;-79
2022/09/03 15:20:35;;;;;;;5.60;3.13;;;26.00;84.90;;;;;;5073060;28;20052;-79
2022/09/03 15:23:16;;;;;;;6.18;3.25;;;25.90;84.90;;;;;;5073923;28;20044;-77
2022/09/03 15:25:57;;;;;;;4.88;3.05;;;25.80;85.00;;;;;;5059402;28;20055;-79
2022/09/03 15:28:48;;;;;;;4.97;3.03;;;25.70;84.80;;;;;;5076972;28;20048;-78
2022/09/03 15:31:37;;;;;;;7.90;3.95;;;25.60;85.10;;;;;;5077583;28;20063;-79
2022/09/03 15:34:26;;;;;;;8.25;3.97;;;25.50;85.40;;;;;;5077038;28;20044;-79
2022/09/03 15:37:22;;;;;;;11.02;3.30;;;25.40;87.80;;;;;;5074914;28;20479;-79
2022/09/03 15:40:01;;;;;;;6.88;3.42;;;25.40;87.60;;;;;;5039257;28;20479;-78
2022/09/03 15:42:30;;;;;;;6.88;3.65;;;25.40;86.70;;;;;;5057927;28;20075;-79
2022/09/03 15:45:56;;;;;;;4.97;3.35;;;25.50;87.30;;;;;;5040456;28;20060;-79
2022/09/03 15:48:43;;;;;;;5.88;3.90;;;25.50;85.50;;;;;;4956188;29;20047;-79
2022/09/03 15:51:35;;;;;;;6.70;3.70;;;23.80;85.40;;;;;;4957834;29;20043;-79
2022/09/03 15:54:26;;;;;;;8.13;4.50;;;26.50;87.00;;;;;;4956004;29;20047;-79
2022/09/03 15:57:20;;;;;;;7.93;4.13;;;25.40;87.00;;;;;;5022999;28;20041;-78
2022/09/03 16:00:00;;;;;;;8.98;4.35;;;25.40;86.60;;;;;;5057892;28;20044;-80
2022/09/03 16:02:54;;;;;;;9.18;4.32;;;23.80;86.00;;;;;;5044540;28;20471;-78
2022/09/03 16:05:42;;;;;;;9.85;4.80;;;25.30;87.10;;;;;;5037384;28;20056;-79
2022/09/03 16:08:22;;;;;;;11.85;5.30;;;25.30;87.00;;;;;;5018659;28;20107;-80
2022/09/03 16:11:08;;;;;;;13.45;5.10;;;25.20;87.70;;;;;;5020040;28;20045;-79
2022/09/03 16:14:18;;;;;;;11.23;4.93;;;25.10;87.60;;;;;;5019396;28;20053;-78
2022/09/03 16:17:31;;;;;;;10.95;4.88;;;25.00;88.00;;;;;;5010935;28;20468;-79
2022/09/03 16:20:29;;;;;;;8.35;5.13;;;25.00;88.20;;;;;;5036107;28;20049;-75
2022/09/03 16:23:06;;;;;;;7.80;5.00;;;24.90;87.60;;;;;;5022134;28;20054;-79
2022/09/03 16:26:08;;;;;;;12.48;5.15;;;24.80;87.90;;;;;;5019380;28;20049;-79
2022/09/03 16:29:07;;;;;;;7.10;4.88;;;24.60;87.80;;;;;;5035624;28;20037;-79
2022/09/03 16:32:20;;;;;;;8.38;4.80;;;24.60;89.10;;;;;;5019122;28;20053;-78
2022/09/03 16:35:31;;;;;;;9.55;5.40;;;24.30;89.40;;;;;;5012236;28;20053;-79
2022/09/03 16:38:37;;;;;;;9.27;5.85;;;24.40;89.80;;;;;;5036029;28;20057;-80
2022/09/03 16:41:25;;;;;;;10.48;5.15;;;24.20;90.00;;;;;;5035421;28;20052;-79
2022/09/03 16:44:14;;;;;;;12.50;5.78;;;24.10;90.60;;;;;;5019855;28;20057;-78
2022/09/03 16:47:17;;;;;;;9.57;5.35;;;24.20;90.90;;;;;;5035699;28;20205;-79
2022/09/03 16:50:02;;;;;;;10.60;5.82;;;24.00;90.50;;;;;;5036279;28;20041;-79
2022/09/03 16:52:53;;;;;;;12.48;5.65;;;23.90;90.40;;;;;;5035793;28;20117;-80
2022/09/03 16:55:47;;;;;;;11.10;5.40;;;24.00;90.60;;;;;;5035090;28;20065;-78
2022/09/03 16:58:33;;;;;;;11.50;5.68;;;23.80;90.60;;;;;;5019861;28;20052;-78
2022/09/03 17:01:23;;;;;;;11.30;5.70;;;23.80;90.70;;;;;;5034102;28;20072;-75
2022/09/03 17:04:02;;;;;;;12.65;5.55;;;23.70;90.90;;;;;;5035858;28;20046;-75
2022/09/03 17:06:47;;;;;;;11.50;5.65;;;23.40;91.00;;;;;;5019376;28;20045;-75
2022/09/03 17:09:27;;;;;;;12.88;5.53;;;23.10;91.10;;;;;;5001829;28;20371;-75
2022/09/03 17:12:06;;;;;;;9.15;5.70;;;22.90;91.30;;;;;;5020638;28;20056;-75
2022/09/03 17:15:03;;;;;;;13.07;5.78;;;22.70;91.50;;;;;;5035764;28;20052;-76
2022/09/03 17:17:37;;;;;;;12.00;5.45;;;22.50;91.80;;;;;;5033717;28;20053;-76
2022/09/03 17:20:46;;;;;;;8.38;5.13;;;22.30;92.80;;;;;;5017801;28;20476;-76
2022/09/03 17:23:49;;;;;;;11.52;5.72;;;22.10;92.40;;;;;;5035288;28;20046;-76
2022/09/03 17:26:24;;;;;;;12.95;5.93;;;21.20;92.40;;;;;;5018063;28;20072;-76
2022/09/03 17:29:13;;;;;;;9.63;5.70;;;21.90;93.10;;;;;;5017285;28;20041;-75
2022/09/03 17:32:26;;;;;;;12.30;5.95;;;21.80;93.00;;;;;;5018309;28;20049;-76
2022/09/03 17:35:32;;;;;;;16.40;6.30;;;21.70;93.30;;;;;;5017036;28;20053;-75
2022/09/03 17:38:16;;;;;;;14.95;6.00;;;21.60;93.50;;;;;;5036978;28;20067;-76
2022/09/03 17:41:00;;;;;;;11.57;6.25;;;21.50;93.70;;;;;;5053186;28;20036;-75
2022/09/03 17:43:54;;;;;;;11.40;5.55;;;21.40;93.90;;;;;;5054464;28;20041;-76
2022/09/03 17:46:35;;;;;;;13.82;5.60;;;21.40;93.90;;;;;;5053914;28;20045;-75
2022/09/03 17:49:07;;;;;;;12.20;6.32;;;21.30;94.20;;;;;;5055027;28;20048;-76
2022/09/03 17:51:58;;;;;;;12.73;6.20;;;21.20;94.10;;;;;;5053925;28;20052;-75
2022/09/03 17:55:10;;;;;;;12.30;6.57;;;21.10;94.40;;;;;;5020469;28;20053;-76
2022/09/03 17:57:45;;;;;;;10.68;6.25;;;20.90;94.50;;;;;;5047343;28;20048;-76
2022/09/03 18:00:24;;;;;;;12.55;6.75;;;20.90;94.70;;;;;;5053982;28;20052;-76
2022/09/03 18:02:58;;;;;;;12.32;7.03;;;20.90;94.90;;;;;;5053859;28;20044;-76
2022/09/03 18:05:44;;;;;;;16.08;7.05;;;20.80;95.10;;;;;;5054648;28;20040;-75
2022/09/03 18:08:28;;;;;;;12.68;7.35;;;20.80;95.30;;;;;;5053255;28;20041;-76
2022/09/03 18:11:12;;;;;;;13.60;7.82;;;20.70;95.50;;;;;;5053707;28;20060;-75
2022/09/03 18:14:06;;;;;;;16.50;7.85;;;20.70;95.80;;;;;;5052709;28;20040;-75
2022/09/03 18:16:43;;;;;;;13.35;7.38;;;20.60;96.00;;;;;;5020970;28;20045;-75
2022/09/03 20:13:03;;;;;;;19.80;10.10;;;17.70;99.90;;;;;;5018398;28;20045;-76
2022/09/03 20:16:30;;;;;;;17.70;9.38;;;17.60;99.90;;;;;;5016034;28;20290;-75
2022/09/03 20:19:03;;;;;;;13.80;9.63;;;17.40;99.90;;;;;;5036011;28;20045;-77
2022/09/03 20:21:51;;;;;;;15.30;9.43;;;17.50;99.90;;;;;;5035606;28;20471;-75
2022/09/03 20:24:38;;;;;;;19.13;9.60;;;17.50;99.90;;;;;;5036209;28;20060;-75
2022/09/03 20:27:36;;;;;;;17.92;9.43;;;17.40;99.90;;;;;;5035517;28;20057;-76
2022/09/03 20:30:09;;;;;;;;;;;17.30;99.90;;;;;;5036790;28;20057;-77
2022/09/03 20:33:06;;;;;;;16.23;10.00;;;17.30;99.90;;;;;;5019400;28;19920;-75
2022/09/03 20:35:55;;;;;;;19.48;9.98;;;17.30;99.90;;;;;;5019596;28;20053;-75
2022/09/03 20:38:54;;;;;;;18.25;10.40;;;17.20;99.90;;;;;;5036721;28;20069;-77
2022/09/03 20:41:36;;;;;;;20.27;10.60;;;17.20;99.90;;;;;;5035466;28;20064;-74
2022/09/03 20:44:27;;;;;;;16.42;10.05;;;17.10;99.90;;;;;;5019350;28;20510;-75
2022/09/03 20:47:07;;;;;;;19.88;9.80;;;17.10;99.90;;;;;;5035589;28;20045;-77
2022/09/03 20:49:51;;;;;;;18.02;9.50;;;17.00;99.90;;;;;;5018981;28;20065;-77
2022/09/03 20:52:35;;;;;;;15.25;9.57;;;17.00;99.90;;;;;;5017649;28;20056;-74
2022/09/03 20:55:10;;;;;;;20.70;9.73;;;16.90;99.90;;;;;;5017669;28;20379;-74
2022/09/03 20:57:52;;;;;;;19.40;9.98;;;16.90;99.90;;;;;;5035768;28;20064;-76
2022/09/03 21:00:22;;;;;;;16.83;9.48;;;16.90;99.90;;;;;;4985379;28;20069;-78
2022/09/03 21:03:07;;;;;;;13.02;9.07;;;16.80;99.90;;;;;;5003036;28;20064;-76
2022/09/03 21:05:54;;;;;;;16.98;9.38;;;16.80;99.90;;;;;;5002836;28;20049;-77
2022/09/03 21:08:52;;;;;;;18.10;9.45;;;16.70;99.90;;;;;;5017749;28;20049;-77
2022/09/03 21:11:32;;;;;;;16.35;8.88;;;16.70;99.90;;;;;;5035886;28;20475;-76
2022/09/03 21:14:25;;;;;;;18.98;9.02;;;16.70;99.90;;;;;;5034925;28;20034;-77
2022/09/03 21:17:11;;;;;;;17.83;9.05;;;16.70;99.90;;;;;;5035818;28;20415;-76
2022/09/03 21:20:06;;;;;;;15.13;9.38;;;16.60;99.90;;;;;;5018702;28;20049;-77
2022/09/03 21:22:51;;;;;;;19.35;10.25;;;16.60;99.90;;;;;;5035044;28;20045;-76
2022/09/03 21:25:22;;;;;;;16.75;9.75;;;16.50;99.90;;;;;;5018478;28;20384;-77
2022/09/03 21:28:05;;;;;;;16.90;10.13;;;16.50;99.90;;;;;;5034700;28;20415;-76
2022/09/03 21:30:39;;;;;;;16.42;10.10;;;16.40;99.90;;;;;;5018428;28;20383;-76
2022/09/03 21:33:22;;;;;;;15.13;9.55;;;16.40;99.90;;;;;;5035716;28;20364;-76
2022/09/03 21:35:57;;;;;;;17.88;10.98;;;16.30;99.90;;;;;;5035453;28;20060;-77
2022/09/03 21:38:34;;;;;;;18.88;11.00;;;16.30;99.90;;;;;;5035509;28;20045;-77
2022/09/03 21:41:15;;;;;;;19.40;10.82;;;16.30;99.90;;;;;;5017329;28;20056;-77
2022/09/03 21:44:07;;;;;;;21.88;11.98;;;16.20;99.90;;;;;;5035609;28;20038;-77
2022/09/03 21:46:40;;;;;;;21.35;11.82;;;16.20;99.90;;;;;;5034890;28;20349;-77
2022/09/03 21:49:16;;;;;;;17.35;10.27;;;16.20;99.90;;;;;;5018398;28;20160;-75
2022/09/03 21:51:57;;;;;;;20.90;11.63;;;16.20;99.90;;;;;;5035391;28;20384;-75
2022/09/03 21:54:28;;;;;;;21.75;12.00;;;16.10;99.90;;;;;;5016908;28;20068;-77
2022/09/03 21:57:11;;;;;;;18.50;11.90;;;16.10;99.90;;;;;;5017701;28;20061;-76
2022/09/03 22:00:00;;;;;;;20.10;11.93;;;16.10;99.90;;;;;;5018194;28;20049;-78
2022/09/03 22:02:30;;;;;;;18.10;11.98;;;18.90;99.90;;;;;;5001828;28;20056;-76
2022/09/03 22:05:00;;;;;;;19.60;12.02;;;16.00;99.90;;;;;;5034959;28;20371;-75
2022/09/03 22:08:07;;;;;;;19.17;11.98;;;16.00;99.90;;;;;;5033858;28;20053;-77
2022/09/03 22:10:38;;;;;;;;;;;16.00;99.90;;;;;;5002217;28;20053;-75
2022/09/03 22:13:13;;;;;;;26.60;13.77;;;15.90;99.90;;;;;;5001404;28;19925;-74
2022/09/03 22:15:50;;;;;;;23.77;14.13;;;15.90;99.90;;;;;;5018103;28;20053;-75
2022/09/03 22:18:28;;;;;;;23.38;14.40;;;15.90;99.90;;;;;;5035330;28;20038;-78
2022/09/03 22:21:00;;;;;;;24.42;14.15;;;15.80;99.90;;;;;;5000422;28;20065;-75
2022/09/03 22:23:45;;;;;;;23.90;13.30;;;15.90;99.90;;;;;;5017722;28;20060;-76
2022/09/03 22:26:30;;;;;;;19.92;13.10;;;15.90;99.90;;;;;;5018016;28;20049;-77
2022/09/03 22:29:14;;;;;;;27.42;14.07;;;15.80;99.90;;;;;;5017810;28;20064;-78
2022/09/03 22:31:46;;;;;;;22.50;13.02;;;15.80;99.90;;;;;;5034933;28;20052;-75
2022/09/03 22:34:32;;;;;;;21.52;13.18;;;15.80;99.90;;;;;;5033452;28;20042;-75
2022/09/03 22:37:10;;;;;;;23.27;13.50;;;15.80;99.90;;;;;;5017948;28;20052;-77
2022/09/03 22:39:44;;;;;;;21.58;14.02;;;15.60;99.90;;;;;;5053745;28;20379;-75
2022/09/03 22:42:24;;;;;;;24.48;15.18;;;15.60;99.90;;;;;;5052480;28;20057;-75
2022/09/03 22:45:22;;;;;;;23.02;15.27;;;15.60;99.90;;;;;;5053993;28;20052;-76
2022/09/03 22:48:01;;;;;;;25.30;15.45;;;15.60;99.90;;;;;;5053703;28;20048;-75
2022/09/03 22:50:46;;;;;;;31.02;15.77;;;15.60;99.90;;;;;;5053797;28;20045;-78
2022/09/03 22:53:28;;;;;;;27.80;15.55;;;15.60;99.90;;;;;;5053802;28;20049;-75
2022/09/03 22:56:21;;;;;;;28.08;15.77;;;15.50;99.90;;;;;;5053670;28;20045;-76
2022/09/03 22:58:58;;;;;;;26.67;15.48;;;15.50;99.90;;;;;;5037131;28;20391;-75
2022/09/03 23:01:44;;;;;;;25.50;16.02;;;15.50;99.90;;;;;;5053119;28;20049;-77
2022/09/03 23:04:30;;;;;;;28.33;16.02;;;15.40;99.90;;;;;;5053923;28;20064;-76
2022/09/03 23:07:07;;;;;;;30.55;16.15;;;15.40;99.90;;;;;;5068915;28;20041;-77
2022/09/03 23:09:39;;;;;;;26.98;15.82;;;15.40;99.90;;;;;;5054083;28;20041;-78
2022/09/03 23:12:13;;;;;;;28.20;15.85;;;15.40;99.90;;;;;;5054542;28;20360;-77
2022/09/03 23:14:50;;;;;;;27.95;16.85;;;15.40;99.90;;;;;;5052422;28;20049;-78
2022/09/03 23:17:29;;;;;;;26.45;16.92;;;15.40;99.90;;;;;;5054396;28;20041;-77
2022/09/03 23:19:59;;;;;;;;;;;15.40;99.90;;;;;;5053690;28;20044;-77
2022/09/03 23:22:32;;;;;;;26.52;16.50;;;15.40;99.90;;;;;;5053678;28;20280;-79
2022/09/03 23:25:23;;;;;;;32.13;17.23;;;15.40;99.90;;;;;;5054076;28;20052;-75
2022/09/03 23:28:01;;;;;;;26.60;16.40;;;15.40;99.90;;;;;;5052335;28;20068;-77
2022/09/03 23:30:29;;;;;;;28.48;16.50;;;15.40;99.90;;;;;;5053095;28;20056;-75
2022/09/03 23:32:59;;;;;;;24.70;16.15;;;15.50;99.90;;;;;;5053655;28;20371;-78
2022/09/03 23:35:41;;;;;;;27.35;16.42;;;15.50;99.90;;;;;;5052022;28;20048;-77
2022/09/03 23:38:27;;;;;;;27.58;15.63;;;15.60;99.90;;;;;;5053087;28;20045;-75
2022/09/03 23:41:02;;;;;;;32.03;16.33;;;15.50;99.90;;;;;;5052052;28;20041;-74
2022/09/03 23:43:43;;;;;;;24.25;15.40;;;15.60;99.90;;;;;;5054088;28;20053;-76
2022/09/03 23:46:52;;;;;;;31.90;15.77;;;15.60;99.90;;;;;;5039279;28;20052;-75
2022/09/03 23:49:42;;;;;;;23.60;15.50;;;15.50;99.90;;;;;;5056547;28;20056;-75
2022/09/03 23:52:25;;;;;;;27.27;15.07;;;15.50;99.90;;;;;;5040293;28;20063;-77
2022/09/03 23:55:31;;;;;;;25.75;15.32;;;15.50;99.90;;;;;;5055665;28;20060;-75
2022/09/03 23:58:08;;;;;;;24.52;15.48;;;15.50;99.90;;;;;;5057271;28;20482;-77
